KBJI/BJI METAR and TAF weather

Enter ICAO airport designator
Station Type Date Time Source
KBJI METAR 2019/04/24 21:56 UTC NOAA

KBJI 242156Z AUTO 29017G24KT 10SM CLR 21/00 A2966 RMK AO2 T02130000


Station Type Date Time Source
KBJI Decoded METAR 2019/04/24 21:56 UTC NOAA

Bemidji, MN, United States (KBJI) 47-30N 094-56W 420M
Apr 24, 2019 - 05:56 PM EDT / 2019.04.24 2156 UTC
Wind: from the WNW (290 degrees) at 20 MPH (17 KT) gusting to 28 MPH (24 KT):0
Visibility: 10 mile(s):0
Sky conditions: clear
Temperature: 70.3 F (21.3 C)
Dew Point: 32.0 F (0.0 C)
Relative Humidity: 24%
Pressure (altimeter): 29.66 in. Hg (1004 hPa)
ob: KBJI 242156Z AUTO 29017G24KT 10SM CLR 21/00 A2966 RMK AO2 T02130000
cycle: 22

Station Type Date Time Source
KBJI TAF 2019/04/24 18:24 UTC NOAA

TAF KBJI 241720Z 2418/2518 26010KT P6SM SCT200
FM250000 31010KT P6SM SCT200
FM251700 29012KT P6SM FEW250

Example: see airport list